createdAt,value
2023-11-23T00:01:55.823Z,6.24
2023-11-23T00:06:59.659Z,6.28
2023-11-23T00:12:03.380Z,6.30
2023-11-23T00:17:09.430Z,6.33
2023-11-23T00:22:13.286Z,6.31
2023-11-23T00:27:17.157Z,6.38
2023-11-23T00:32:23.635Z,6.38
2023-11-23T00:37:27.403Z,6.41
2023-11-23T00:42:31.205Z,6.43
2023-11-23T00:47:36.249Z,6.49
2023-11-23T00:52:40.001Z,6.51
2023-11-23T00:57:43.725Z,6.50
2023-11-23T01:02:49.093Z,6.56
2023-11-23T01:07:54.046Z,6.62
2023-11-23T01:12:58.121Z,6.63
2023-11-23T01:18:03.377Z,6.69
2023-11-23T01:23:07.148Z,6.72
2023-11-23T01:28:10.894Z,6.78
2023-11-23T01:33:16.789Z,6.81
2023-11-23T01:38:20.776Z,6.92
2023-11-23T01:43:24.692Z,6.99
2023-11-23T01:48:32.215Z,7.06
2023-11-23T01:53:36.791Z,7.12
2023-11-23T01:58:40.925Z,7.18
2023-11-23T02:03:46.785Z,7.24
2023-11-23T02:08:51.029Z,7.25
2023-11-23T02:13:55.798Z,7.31
2023-11-23T02:19:01.159Z,7.36
2023-11-23T02:24:09.404Z,7.42
2023-11-23T02:29:13.147Z,7.43
2023-11-23T02:34:16.872Z,7.51
2023-11-23T02:39:21.964Z,7.59
2023-11-23T02:44:25.879Z,7.61
2023-11-23T02:49:29.582Z,7.66
2023-11-23T02:54:36.253Z,7.69
2023-11-23T02:59:39.985Z,7.76
2023-11-23T03:04:43.732Z,7.83
2023-11-23T03:09:48.877Z,7.91
2023-11-23T03:14:52.683Z,7.95
2023-11-23T03:19:56.472Z,7.99
2023-11-23T03:25:01.753Z,8.03
2023-11-23T03:30:07.880Z,8.06
2023-11-23T03:35:11.844Z,8.09
2023-11-23T03:40:17.369Z,8.13
2023-11-23T03:45:22.279Z,8.16
2023-11-23T03:50:26.304Z,8.16
2023-11-23T03:55:31.372Z,8.22
2023-11-23T04:00:35.848Z,8.23
2023-11-23T04:05:39.608Z,8.29
2023-11-23T04:10:44.752Z,8.32
2023-11-23T04:15:48.443Z,8.35
2023-11-23T04:20:52.189Z,8.37
2023-11-23T04:25:57.931Z,8.42
2023-11-23T04:31:01.735Z,8.48
2023-11-23T04:36:06.181Z,8.48
2023-11-23T04:41:12.920Z,8.54
2023-11-23T04:46:17.697Z,8.60
2023-11-23T04:51:21.448Z,8.62
2023-11-23T04:56:26.698Z,8.66
2023-11-23T05:01:30.497Z,8.70
2023-11-23T05:06:34.283Z,8.78
2023-11-23T05:11:39.329Z,8.78
2023-11-23T05:16:43.224Z,8.83
2023-11-23T05:21:46.948Z,8.86
2023-11-23T05:26:52.203Z,8.87
2023-11-23T05:31:55.947Z,8.86
2023-11-23T05:36:59.693Z,8.83
2023-11-23T05:42:04.969Z,8.86
2023-11-23T05:47:08.782Z,8.85
2023-11-23T05:52:12.754Z,8.81
2023-11-23T05:57:18.508Z,8.77
2023-11-23T06:02:22.776Z,8.78
2023-11-23T06:07:26.551Z,8.83
2023-11-23T06:12:31.615Z,8.83
2023-11-23T06:17:35.834Z,8.84
2023-11-23T06:22:39.755Z,8.84
2023-11-23T06:27:45.331Z,8.84
2023-11-23T06:32:49.823Z,8.83
2023-11-23T06:37:53.988Z,8.83
2023-11-23T06:42:59.065Z,8.84
2023-11-23T06:48:02.929Z,8.83
2023-11-23T06:53:06.913Z,8.85
2023-11-23T06:58:11.995Z,8.86
2023-11-23T07:03:15.834Z,8.86
2023-11-23T07:08:19.570Z,8.87
2023-11-23T07:13:24.728Z,8.88
2023-11-23T07:18:28.594Z,8.92
2023-11-23T07:23:32.991Z,8.89
2023-11-23T07:28:38.082Z,8.89
2023-11-23T07:33:41.811Z,8.94
2023-11-23T07:38:46.110Z,8.97
2023-11-23T07:43:51.864Z,8.97
2023-11-23T07:48:55.650Z,8.99
2023-11-23T07:53:59.403Z,8.98
2023-11-23T07:59:04.633Z,9.03
2023-11-23T08:04:08.502Z,9.07
2023-11-23T08:09:17.012Z,9.12
2023-11-23T08:14:22.342Z,9.19
2023-11-23T08:19:26.565Z,9.24
2023-11-23T08:24:30.457Z,9.30
2023-11-23T08:29:37.021Z,9.32
2023-11-23T08:34:42.556Z,9.35
2023-11-23T08:39:47.993Z,9.34
2023-11-23T08:44:53.405Z,9.40
2023-11-23T08:49:57.396Z,9.40
2023-11-23T08:55:01.726Z,9.41
2023-11-23T09:00:11.007Z,9.48
2023-11-23T09:05:14.881Z,9.56
2023-11-23T09:10:18.918Z,9.60
2023-11-23T09:15:24.229Z,9.68
2023-11-23T09:20:28.976Z,9.78
2023-11-23T09:25:35.208Z,9.75
2023-11-23T09:30:40.727Z,9.87
2023-11-23T09:35:44.714Z,9.91
2023-11-23T09:40:48.493Z,9.93
2023-11-23T09:45:53.947Z,9.99
2023-11-23T09:50:58.475Z,10.13
2023-11-23T09:56:04.938Z,10.24
2023-11-23T10:01:11.687Z,10.34
2023-11-23T10:06:15.944Z,10.46
2023-11-23T10:11:19.963Z,10.52
2023-11-23T10:16:25.126Z,10.60
2023-11-23T10:21:30.390Z,10.59
2023-11-23T10:26:34.315Z,10.64
2023-11-23T10:31:39.405Z,10.85
2023-11-23T10:36:43.677Z,10.89
2023-11-23T10:41:47.643Z,10.89
2023-11-23T10:46:54.900Z,10.92
2023-11-23T10:51:58.786Z,10.99
2023-11-23T10:57:05.685Z,11.10
2023-11-23T11:02:12.105Z,11.11
2023-11-23T11:07:15.911Z,11.05
2023-11-23T11:12:19.828Z,11.11
2023-11-23T11:17:37.405Z,11.04
2023-11-23T11:22:41.173Z,11.00
2023-11-23T11:27:45.030Z,11.07
2023-11-23T11:32:53.547Z,11.06
2023-11-23T11:37:58.337Z,11.03
2023-11-23T11:43:03.289Z,11.11
2023-11-23T11:48:08.559Z,11.14
2023-11-23T11:53:12.809Z,11.18
2023-11-23T11:58:16.552Z,11.22
2023-11-23T12:03:21.851Z,11.23
2023-11-23T12:08:33.210Z,11.23
2023-11-23T12:13:37.387Z,11.25
2023-11-23T12:18:42.524Z,11.26
2023-11-23T12:23:47.103Z,11.24
2023-11-23T12:28:51.661Z,11.22
2023-11-23T12:33:56.755Z,11.22
2023-11-23T12:39:00.565Z,11.22
2023-11-23T12:44:04.921Z,11.26
2023-11-23T12:49:11.326Z,11.24
2023-11-23T12:54:16.189Z,11.27
2023-11-23T12:59:20.134Z,11.37
2023-11-23T13:04:29.628Z,11.37
2023-11-23T13:09:34.753Z,11.43
2023-11-23T13:14:38.709Z,11.47
2023-11-23T13:19:44.599Z,11.61
2023-11-23T13:24:48.457Z,11.68
2023-11-23T13:29:52.269Z,11.80
2023-11-23T13:34:57.949Z,11.75
2023-11-23T13:40:04.772Z,11.66
2023-11-23T13:45:09.588Z,11.71
2023-11-23T13:50:18.053Z,11.66
2023-11-23T13:55:21.948Z,11.60
2023-11-23T14:00:25.757Z,11.59
2023-11-23T14:05:31.739Z,11.62
2023-11-23T14:10:36.418Z,11.66
2023-11-23T14:15:40.681Z,11.77
2023-11-23T14:20:45.777Z,11.71
2023-11-23T14:25:49.584Z,11.64
2023-11-23T14:30:54.330Z,11.51
2023-11-23T14:35:59.396Z,11.52
2023-11-23T14:41:03.195Z,11.50
2023-11-23T14:46:08.556Z,11.47
2023-11-23T14:51:13.840Z,11.47
2023-11-23T14:56:17.604Z,11.48
2023-11-23T15:01:21.596Z,11.42
2023-11-23T15:06:27.547Z,11.39
2023-11-23T15:11:31.886Z,11.37
2023-11-23T15:16:35.654Z,11.34
2023-11-23T15:21:43.652Z,11.26
2023-11-23T15:26:47.966Z,11.26
2023-11-23T15:31:53.430Z,11.22
2023-11-23T15:36:59.905Z,11.07
2023-11-23T15:42:04.540Z,10.99
2023-11-23T15:47:12.034Z,10.93
2023-11-23T15:52:17.463Z,10.78
2023-11-23T15:57:21.350Z,10.80
2023-11-23T16:02:25.288Z,10.78
2023-11-23T16:07:30.509Z,10.72
2023-11-23T16:12:34.844Z,10.67
2023-11-23T16:17:39.644Z,10.66
2023-11-23T16:22:45.705Z,10.71
2023-11-23T16:27:49.515Z,10.74
2023-11-23T16:32:55.588Z,10.76
2023-11-23T16:38:01.338Z,10.69
2023-11-23T16:43:05.466Z,10.74
2023-11-23T16:48:09.345Z,10.72
2023-11-23T16:53:14.512Z,10.75
2023-11-23T16:58:18.273Z,10.78
2023-11-23T17:03:22.141Z,10.77
2023-11-23T17:08:27.290Z,10.74
2023-11-23T17:13:31.015Z,10.75
2023-11-23T17:18:34.807Z,10.71
2023-11-23T17:23:39.916Z,10.69
2023-11-23T17:28:44.227Z,10.72
2023-11-23T17:33:48.633Z,10.72
2023-11-23T17:38:53.714Z,10.72
2023-11-23T17:43:57.781Z,10.71
2023-11-23T17:49:01.675Z,10.69
2023-11-23T17:54:07.622Z,10.77
2023-11-23T17:59:25.478Z,10.76
2023-11-23T18:04:35.072Z,10.75
2023-11-23T18:09:40.153Z,10.73
2023-11-23T18:14:44.012Z,10.78
2023-11-23T18:19:47.752Z,10.79
2023-11-23T18:24:52.838Z,10.83
2023-11-23T18:29:56.698Z,10.81
2023-11-23T18:35:02.109Z,10.80
2023-11-23T18:40:14.118Z,10.84
2023-11-23T18:45:18.922Z,10.85
2023-11-23T18:50:22.752Z,10.90
2023-11-23T18:55:28.711Z,10.88
2023-11-23T19:00:33.010Z,10.93
2023-11-23T19:05:36.844Z,10.94
2023-11-23T19:10:42.986Z,10.97
2023-11-23T19:15:46.980Z,10.94
2023-11-23T19:20:52.679Z,10.96
2023-11-23T19:25:58.530Z,10.99
2023-11-23T19:31:06.499Z,10.98
2023-11-23T19:36:13.615Z,10.98
2023-11-23T19:41:22.986Z,10.98
2023-11-23T19:46:29.123Z,10.99
2023-11-23T19:51:33.320Z,11.04
2023-11-23T19:56:38.403Z,11.06
2023-11-23T20:01:43.685Z,11.03
2023-11-23T20:06:47.825Z,11.00
2023-11-23T20:11:52.926Z,11.00
2023-11-23T20:16:56.839Z,10.96
2023-11-23T20:22:00.576Z,10.94
2023-11-23T20:27:06.158Z,10.90
2023-11-23T20:32:10.770Z,10.93
2023-11-23T20:37:15.173Z,10.87
2023-11-23T20:42:20.393Z,10.82
2023-11-23T20:47:24.208Z,10.81
2023-11-23T20:52:27.945Z,10.82
2023-11-23T20:57:33.604Z,10.79
2023-11-23T21:02:38.045Z,10.87
2023-11-23T21:07:42.423Z,10.86
2023-11-23T21:12:47.868Z,10.88
2023-11-23T21:17:51.669Z,10.88
2023-11-23T21:22:56.243Z,10.91
2023-11-23T21:28:01.392Z,10.93
2023-11-23T21:33:06.281Z,10.97
2023-11-23T21:38:11.382Z,11.01
2023-11-23T21:43:16.612Z,11.06
2023-11-23T21:48:21.581Z,11.09
2023-11-23T21:53:25.689Z,11.03
2023-11-23T21:58:31.124Z,10.99
2023-11-23T22:03:34.929Z,10.91
2023-11-23T22:08:38.718Z,10.82
2023-11-23T22:13:44.958Z,10.68
2023-11-23T22:18:49.367Z,10.71
2023-11-23T22:23:53.567Z,10.65
2023-11-23T22:28:59.523Z,10.67
2023-11-23T22:34:04.520Z,10.59
2023-11-23T22:39:10.263Z,10.61
2023-11-23T22:44:16.654Z,10.54
2023-11-23T22:49:20.370Z,10.48
2023-11-23T22:54:24.247Z,10.35
2023-11-23T22:59:29.308Z,10.34
2023-11-23T23:04:34.187Z,10.27
2023-11-23T23:09:38.264Z,10.23
2023-11-23T23:14:43.338Z,10.17
2023-11-23T23:19:47.114Z,10.16
2023-11-23T23:24:50.837Z,10.16
2023-11-23T23:29:55.923Z,10.03
2023-11-23T23:35:01.550Z,10.01
2023-11-23T23:40:05.978Z,9.98
2023-11-23T23:45:11.296Z,9.97
2023-11-23T23:50:15.113Z,9.86
2023-11-23T23:55:18.826Z,9.92
